createdAt,value
2023-01-08T00:01:11.118Z,99414.81
2023-01-08T00:03:38.978Z,99387.63
2023-01-08T00:06:07.611Z,99360.19
2023-01-08T00:08:36.312Z,99407.81
2023-01-08T00:11:03.688Z,99400.69
2023-01-08T00:13:31.104Z,99409.53
2023-01-08T00:15:58.516Z,99413.94
2023-01-08T00:18:27.188Z,99408.66
2023-01-08T00:20:54.558Z,99399.91
2023-01-08T00:23:22.899Z,99391.16
2023-01-08T00:25:51.629Z,99385.88
2023-01-08T00:28:20.822Z,99385.88
2023-01-08T00:30:48.396Z,99383.34
2023-01-08T00:33:16.097Z,99388.53
2023-01-08T00:35:43.490Z,99371.09
2023-01-08T00:38:10.887Z,99405.16
2023-01-08T00:40:38.474Z,99407.81
2023-01-08T00:43:07.206Z,99403.41
2023-01-08T00:45:34.634Z,99409.53
2023-01-08T00:48:02.063Z,99388.53
2023-01-08T00:50:29.447Z,99384.06
2023-01-08T00:52:56.824Z,99381.34
2023-01-08T00:55:24.199Z,99375.25
2023-01-08T00:57:51.639Z,99374.31
2023-01-08T01:00:20.373Z,99372.63
2023-01-08T01:02:47.755Z,99361.28
2023-01-08T01:05:16.871Z,99323.97
2023-01-08T01:07:44.442Z,99356.97
2023-01-08T01:10:11.989Z,99357.88
2023-01-08T01:12:39.540Z,99315.28
2023-01-08T01:15:08.085Z,99347.41
2023-01-08T01:17:38.572Z,99318.34
2023-01-08T01:20:06.774Z,99346.31
2023-01-08T01:22:34.172Z,99363.06
2023-01-08T01:25:01.619Z,99366.66
2023-01-08T01:27:29.016Z,99362.22
2023-01-08T01:29:56.397Z,99356.97
2023-01-08T01:32:23.878Z,99357.88
2023-01-08T01:34:52.659Z,99349.13
2023-01-08T01:37:20.077Z,99355.25
2023-01-08T01:39:47.600Z,99357.78
2023-01-08T01:42:36.329Z,99303.97
2023-01-08T01:45:04.205Z,99340.28
2023-01-08T01:47:33.060Z,99318.19
2023-01-08T01:50:04.234Z,99286.19
2023-01-08T01:52:32.162Z,99328.88
2023-01-08T01:54:59.854Z,99335.00
2023-01-08T01:57:27.222Z,99342.16
2023-01-08T01:59:54.825Z,99347.25
2023-01-08T02:02:23.093Z,99344.69
2023-01-08T02:04:50.677Z,99343.78
2023-01-08T02:07:23.056Z,99353.28
2023-01-08T02:09:52.881Z,99346.59
2023-01-08T02:12:21.926Z,99344.53
2023-01-08T02:14:58.878Z,99340.19
2023-01-08T02:17:29.072Z,99311.28
2023-01-08T02:19:57.020Z,99342.91
2023-01-08T02:22:32.046Z,99332.03
2023-01-08T02:25:02.660Z,99342.16
2023-01-08T02:27:31.916Z,99339.41
2023-01-08T02:29:59.283Z,99337.72
2023-01-08T02:32:27.489Z,99333.31
2023-01-08T02:34:54.931Z,99297.88
2023-01-08T02:37:22.321Z,99342.06
2023-01-08T02:39:56.735Z,99315.03
2023-01-08T02:42:25.455Z,99336.69
2023-01-08T02:44:56.844Z,99337.81
2023-01-08T02:47:27.133Z,99322.59
2023-01-08T02:49:56.172Z,99339.41
2023-01-08T02:52:23.571Z,99329.22
2023-01-08T02:54:50.967Z,99345.56
2023-01-08T02:57:18.352Z,99342.91
2023-01-08T02:59:45.857Z,99341.97
2023-01-08T03:02:14.730Z,99333.97
2023-01-08T03:04:45.686Z,99334.06
2023-01-08T03:07:13.059Z,99318.41
2023-01-08T03:09:40.461Z,99314.16
2023-01-08T03:12:11.130Z,99304.75
2023-01-08T03:14:40.951Z,99296.41
2023-01-08T03:17:09.549Z,99315.78
2023-01-08T03:19:41.154Z,99318.41
2023-01-08T03:22:08.816Z,99314.09
2023-01-08T03:24:36.228Z,99313.13
2023-01-08T03:27:04.868Z,99300.66
2023-01-08T03:29:32.260Z,99313.22
2023-01-08T03:32:01.982Z,99299.38
2023-01-08T03:34:29.434Z,99307.13
2023-01-08T03:36:59.017Z,99300.13
2023-01-08T03:39:27.560Z,99280.84
2023-01-08T03:41:56.733Z,99273.13
2023-01-08T03:44:24.254Z,99302.75
2023-01-08T03:46:53.369Z,99300.13
2023-01-08T03:49:20.891Z,99294.75
2023-01-08T03:51:48.427Z,99248.03
2023-01-08T03:54:18.141Z,99280.94
2023-01-08T03:56:45.540Z,99280.06
2023-01-08T03:59:13.055Z,99264.09
2023-01-08T04:01:40.563Z,99283.56
2023-01-08T04:04:08.156Z,99267.75
2023-01-08T04:06:35.628Z,99274.72
2023-01-08T04:09:03.062Z,99226.78
2023-01-08T04:11:32.311Z,99209.44
2023-01-08T04:13:59.775Z,99228.31
2023-01-08T04:16:27.164Z,99258.03
2023-01-08T04:18:54.558Z,99255.38
2023-01-08T04:21:21.947Z,99244.00
2023-01-08T04:23:49.689Z,99244.84
2023-01-08T04:26:17.070Z,99238.91
2023-01-08T04:28:45.778Z,99235.50
2023-01-08T04:31:13.195Z,99238.84
2023-01-08T04:33:40.595Z,99239.66
2023-01-08T04:36:08.241Z,99240.59
2023-01-08T04:38:35.640Z,99236.19
2023-01-08T04:41:03.139Z,99230.06
2023-01-08T04:43:30.745Z,99236.19
2023-01-08T04:46:00.086Z,99230.06
2023-01-08T04:48:27.541Z,99236.28
2023-01-08T04:50:54.975Z,99241.38
2023-01-08T04:53:22.369Z,99214.88
2023-01-08T04:55:49.787Z,99239.66
2023-01-08T04:58:17.176Z,99234.31
2023-01-08T05:00:44.547Z,99230.31
2023-01-08T05:03:13.316Z,99231.84
2023-01-08T05:05:40.704Z,99224.78
2023-01-08T05:08:08.104Z,99223.84
2023-01-08T05:10:35.503Z,99225.66
2023-01-08T05:13:02.903Z,99227.44
2023-01-08T05:15:30.376Z,99219.53
2023-01-08T05:18:00.849Z,99181.97
2023-01-08T05:20:29.572Z,99210.75
2023-01-08T05:22:58.334Z,99177.91
2023-01-08T05:25:25.740Z,99213.38
2023-01-08T05:27:53.253Z,99168.22
2023-01-08T05:30:20.735Z,99177.72
2023-01-08T05:32:48.115Z,99210.66
2023-01-08T05:35:15.530Z,99207.19
2023-01-08T05:37:44.251Z,99214.25
2023-01-08T05:40:12.847Z,99202.84
2023-01-08T05:42:40.240Z,99205.38
2023-01-08T05:45:08.872Z,99210.75
2023-01-08T05:47:36.349Z,99208.13
2023-01-08T05:50:03.772Z,99204.72
2023-01-08T05:52:31.157Z,99216.97
2023-01-08T05:55:00.369Z,99212.56
2023-01-08T05:57:27.776Z,99209.06
2023-01-08T05:59:55.223Z,99204.66
2023-01-08T06:02:22.623Z,99210.66
2023-01-08T06:04:50.025Z,99197.66
2023-01-08T06:07:17.406Z,99207.28
2023-01-08T06:09:44.794Z,99194.09
2023-01-08T06:12:13.506Z,99200.28
2023-01-08T06:14:40.920Z,99202.00
2023-01-08T06:17:08.332Z,99191.47
2023-01-08T06:19:35.748Z,99193.31
2023-01-08T06:22:03.128Z,99198.59
2023-01-08T06:24:30.536Z,99202.09
2023-01-08T06:26:57.920Z,99200.28
2023-01-08T06:29:26.632Z,99208.28
2023-01-08T06:31:54.047Z,99203.88
2023-01-08T06:34:21.442Z,99205.66
2023-01-08T06:36:48.828Z,99201.31
2023-01-08T06:39:16.242Z,99212.72
2023-01-08T06:41:43.717Z,99222.41
2023-01-08T06:44:11.099Z,99211.00
2023-01-08T06:46:40.449Z,99212.03
2023-01-08T06:49:07.885Z,99212.72
2023-01-08T06:51:35.281Z,99216.28
2023-01-08T06:54:02.763Z,99177.97
2023-01-08T06:56:30.144Z,99216.19
2023-01-08T06:58:57.532Z,99213.66
2023-01-08T07:01:25.034Z,99205.75
2023-01-08T07:03:53.817Z,99210.19
2023-01-08T07:06:21.869Z,99103.84
2023-01-08T07:08:49.338Z,99206.59
2023-01-08T07:11:16.873Z,99216.19
2023-01-08T07:13:44.273Z,99218.00
2023-01-08T07:16:12.994Z,99133.16
2023-01-08T07:18:40.735Z,99220.72
2023-01-08T07:21:09.557Z,99212.72
2023-01-08T07:23:38.125Z,99210.19
2023-01-08T07:26:06.427Z,99125.44
2023-01-08T07:28:33.919Z,99223.44
2023-01-08T07:31:03.997Z,99175.69
2023-01-08T07:33:31.275Z,99215.53
2023-01-08T07:35:58.715Z,99220.81
2023-01-08T07:38:27.443Z,99218.19
2023-01-08T07:40:54.841Z,99213.75
2023-01-08T07:43:22.254Z,99206.78
2023-01-08T07:45:49.679Z,99203.09
2023-01-08T07:48:17.063Z,99202.38
2023-01-08T07:50:45.025Z,99199.72
2023-01-08T07:53:13.480Z,99171.88
2023-01-08T07:55:42.237Z,99202.38
2023-01-08T07:58:10.175Z,99195.38
2023-01-08T08:00:37.580Z,99198.88
2023-01-08T08:03:05.910Z,99198.88
2023-01-08T08:05:33.783Z,99197.09
2023-01-08T08:10:19.350Z,99201.50
2023-01-08T08:12:48.034Z,99192.75
2023-01-08T08:15:15.530Z,99188.59
2023-01-08T08:17:45.969Z,99191.91
2023-01-08T08:20:13.405Z,99190.28
2023-01-08T08:22:40.841Z,99187.56
2023-01-08T08:25:09.033Z,99186.63
2023-01-08T08:27:36.440Z,99188.41
2023-01-08T08:30:06.052Z,99182.19
2023-01-08T08:32:33.456Z,99184.81
2023-01-08T08:35:00.899Z,99181.28
2023-01-08T08:37:28.267Z,99181.28
2023-01-08T08:39:55.671Z,99173.38
2023-01-08T08:42:23.055Z,99164.69
2023-01-08T08:44:50.465Z,99162.06
2023-01-08T08:47:19.179Z,99157.63
2023-01-08T08:49:46.585Z,99162.91
2023-01-08T08:52:13.986Z,99163.75
2023-01-08T08:54:41.603Z,99155.84
2023-01-08T08:57:09.301Z,99159.41
2023-01-08T08:59:36.739Z,99158.38
2023-01-08T09:02:04.441Z,99134.44
2023-01-08T09:04:33.627Z,99126.31
2023-01-08T09:07:01.083Z,99158.38
2023-01-08T09:09:28.452Z,99165.47
2023-01-08T09:11:55.842Z,99153.97
2023-01-08T09:14:23.215Z,99160.94
2023-01-08T09:16:50.576Z,99164.41
2023-01-08T09:19:17.960Z,99160.00
2023-01-08T09:21:46.665Z,99167.91
2023-01-08T09:24:14.499Z,99164.34
2023-01-08T09:26:41.882Z,99161.69
2023-01-08T09:29:09.304Z,99174.88
2023-01-08T09:31:36.776Z,99166.03
2023-01-08T09:34:04.238Z,99170.38
2023-01-08T09:36:31.618Z,99165.94
2023-01-08T09:39:00.367Z,99159.06
2023-01-08T09:41:28.749Z,99165.00
2023-01-08T09:43:56.646Z,99164.91
2023-01-08T09:46:25.704Z,99169.16
2023-01-08T09:48:53.403Z,99145.38
2023-01-08T09:51:20.984Z,99145.28
2023-01-08T09:53:50.561Z,99147.75
2023-01-08T09:56:19.610Z,99130.69
2023-01-08T09:58:48.857Z,99167.94
2023-01-08T10:01:17.106Z,99162.84
2023-01-08T10:03:45.361Z,99169.66
2023-01-08T10:06:13.399Z,99129.66
2023-01-08T10:08:40.971Z,99157.56
2023-01-08T10:11:08.754Z,99141.94
2023-01-08T10:13:38.584Z,99163.44
2023-01-08T10:16:07.514Z,99159.09
2023-01-08T10:18:34.943Z,99144.97
2023-01-08T10:21:02.302Z,99128.47
2023-01-08T10:23:29.706Z,99124.25
2023-01-08T10:25:58.354Z,99135.66
2023-01-08T10:28:26.590Z,99126.78
2023-01-08T10:30:59.334Z,99143.09
2023-01-08T10:33:27.944Z,99134.53
2023-01-08T10:35:56.979Z,99114.16
2023-01-08T10:38:26.377Z,99057.72
2023-01-08T10:40:53.767Z,99125.09
2023-01-08T10:43:22.203Z,99133.03
2023-01-08T10:45:58.438Z,99132.19
2023-01-08T10:48:28.446Z,99114.94
2023-01-08T10:51:06.979Z,99122.09
2023-01-08T10:53:34.595Z,99120.22
2023-01-08T10:56:02.611Z,99092.16
2023-01-08T10:58:30.214Z,99093.84
2023-01-08T11:01:09.718Z,99030.66
2023-01-08T11:03:37.177Z,99116.44
2023-01-08T11:06:11.646Z,99069.59
2023-01-08T11:08:39.037Z,99108.03
2023-01-08T11:11:06.421Z,99104.16
2023-01-08T11:13:33.849Z,99104.81
2023-01-08T11:16:04.876Z,99101.03
2023-01-08T11:18:32.273Z,99102.53
2023-01-08T11:21:08.457Z,98996.16
2023-01-08T11:23:35.854Z,99095.28
2023-01-08T11:26:06.149Z,99104.88
2023-01-08T11:28:39.323Z,99099.78
2023-01-08T11:31:14.393Z,99101.50
2023-01-08T11:33:41.780Z,99086.44
2023-01-08T11:36:13.624Z,99052.03
2023-01-08T11:38:42.179Z,99091.34
2023-01-08T11:41:19.956Z,99090.56
2023-01-08T11:43:54.261Z,99082.75
2023-01-08T11:46:28.589Z,99080.50
2023-01-08T11:49:28.483Z,99080.09
2023-01-08T11:52:03.264Z,99054.88
2023-01-08T11:54:41.879Z,99065.63
2023-01-08T11:57:16.357Z,99057.69
2023-01-08T11:59:54.744Z,99049.88
2023-01-08T12:02:26.545Z,99021.06
2023-01-08T12:05:08.904Z,99042.16
2023-01-08T12:07:39.780Z,99043.06
2023-01-08T12:10:12.748Z,99026.13
2023-01-08T12:12:46.883Z,99049.09
2023-01-08T12:15:17.410Z,99047.22
2023-01-08T12:18:10.376Z,99009.72
2023-01-08T12:20:38.535Z,99035.25
2023-01-08T12:23:14.386Z,99025.34
2023-01-08T12:25:48.282Z,99018.50
2023-01-08T12:28:21.887Z,99015.09
2023-01-08T12:30:57.440Z,99018.69
2023-01-08T12:33:33.457Z,99008.97
2023-01-08T12:36:01.853Z,99004.53
2023-01-08T12:38:31.001Z,98961.91
2023-01-08T12:40:59.779Z,98998.09
2023-01-08T12:43:31.447Z,98988.22
2023-01-08T12:46:00.349Z,98904.25
2023-01-08T12:48:29.897Z,98950.56
2023-01-08T12:51:02.581Z,98987.16
2023-01-08T12:53:43.612Z,98981.59
2023-01-08T12:56:13.169Z,98975.38
2023-01-08T12:58:49.537Z,98970.94
2023-01-08T13:01:23.388Z,98977.72
2023-01-08T13:03:52.221Z,98972.53
2023-01-08T13:06:19.677Z,98913.94
2023-01-08T13:08:49.290Z,98935.34
2023-01-08T13:11:25.509Z,98953.66
2023-01-08T13:13:59.784Z,98936.00
2023-01-08T13:16:27.205Z,98947.44
2023-01-08T13:18:57.302Z,98948.91
2023-01-08T13:21:31.535Z,98944.38
2023-01-08T13:24:26.740Z,98939.75
2023-01-08T13:26:54.184Z,98896.81
2023-01-08T13:29:27.879Z,98927.19
2023-01-08T13:31:55.317Z,98923.72
2023-01-08T13:34:36.814Z,98900.25
2023-01-08T13:37:04.204Z,98918.44
2023-01-08T13:39:36.276Z,98921.16
2023-01-08T13:42:06.907Z,98882.03
2023-01-08T13:44:35.279Z,98911.75
2023-01-08T13:47:04.058Z,98902.13
2023-01-08T13:49:35.392Z,98906.56
2023-01-08T13:52:02.799Z,98903.09
2023-01-08T13:54:36.235Z,98908.38
2023-01-08T13:57:06.131Z,98897.16
2023-01-08T13:59:38.000Z,98870.22
2023-01-08T14:02:05.643Z,98896.31
2023-01-08T14:04:34.415Z,98849.69
2023-01-08T14:07:14.173Z,98870.72
2023-01-08T14:09:41.542Z,98892.00
2023-01-08T14:12:09.708Z,98850.72
2023-01-08T14:14:37.094Z,98895.69
2023-01-08T14:17:04.522Z,98885.22
2023-01-08T14:19:31.910Z,98868.50
2023-01-08T14:22:01.507Z,98860.25
2023-01-08T14:24:28.887Z,98884.78
2023-01-08T14:26:57.139Z,98880.97
2023-01-08T14:29:25.529Z,98846.31
2023-01-08T14:31:53.918Z,98877.16
2023-01-08T14:34:21.679Z,98887.31
2023-01-08T14:36:49.771Z,98887.31
2023-01-08T14:39:23.126Z,98842.59
2023-01-08T14:42:07.897Z,98882.25
2023-01-08T14:44:39.218Z,98863.00
2023-01-08T14:47:14.860Z,98883.31
2023-01-08T14:49:44.534Z,98889.41
2023-01-08T14:52:12.511Z,98885.19
2023-01-08T14:54:41.207Z,98886.03
2023-01-08T14:57:08.589Z,98875.59
2023-01-08T14:59:37.703Z,98873.97
2023-01-08T15:02:05.669Z,98842.38
2023-01-08T15:04:33.237Z,98866.16
2023-01-08T15:07:07.712Z,98866.16
2023-01-08T15:09:35.651Z,98829.16
2023-01-08T15:12:05.037Z,98818.91
2023-01-08T15:14:33.333Z,98860.25
2023-01-08T15:17:01.279Z,98861.19
2023-01-08T15:19:29.683Z,98866.47
2023-01-08T15:21:58.577Z,98859.16
2023-01-08T15:24:27.297Z,98853.25
2023-01-08T15:26:54.677Z,98860.34
2023-01-08T15:29:24.365Z,98863.91
2023-01-08T15:31:51.827Z,98850.94
2023-01-08T15:34:19.951Z,98855.38
2023-01-08T15:36:47.363Z,98816.16
2023-01-08T15:39:14.757Z,98850.94
2023-01-08T15:41:59.460Z,98846.72
2023-01-08T15:44:28.159Z,98840.78
2023-01-08T15:46:55.567Z,98840.16
2023-01-08T15:49:22.963Z,98832.63
2023-01-08T15:51:50.921Z,98762.66
2023-01-08T15:54:18.332Z,98838.25
2023-01-08T15:56:45.724Z,98552.13
2023-01-08T15:59:13.116Z,98824.31
2023-01-08T16:01:41.910Z,98821.88
2023-01-08T16:04:09.358Z,98833.16
2023-01-08T16:06:36.799Z,98823.47
2023-01-08T16:09:04.352Z,98830.63
2023-01-08T16:11:31.758Z,98831.88
2023-01-08T16:13:59.143Z,98833.38
2023-01-08T16:16:26.587Z,98827.38
2023-01-08T16:18:55.279Z,98828.09
2023-01-08T16:21:22.664Z,98830.94
2023-01-08T16:23:50.089Z,98812.88
2023-01-08T16:26:17.484Z,98830.19
2023-01-08T16:28:44.890Z,98816.66
2023-01-08T16:31:12.368Z,98822.50
2023-01-08T16:33:39.797Z,98817.31
2023-01-08T16:36:09.675Z,98828.78
2023-01-08T16:38:37.400Z,98835.88
2023-01-08T16:41:05.501Z,98843.78
2023-01-08T16:43:33.025Z,98837.00
2023-01-08T16:46:03.167Z,98835.22
2023-01-08T16:48:31.059Z,98826.19
2023-01-08T16:50:59.488Z,98843.19
2023-01-08T16:53:28.326Z,98841.53
2023-01-08T16:55:55.690Z,98840.56
2023-01-08T16:58:23.116Z,98847.63
2023-01-08T17:00:50.534Z,98849.53
2023-01-08T17:03:18.318Z,98844.34
2023-01-08T17:05:45.721Z,98835.78
2023-01-08T17:08:15.762Z,98844.44
2023-01-08T17:10:44.532Z,98823.28
2023-01-08T17:13:11.921Z,98836.63
2023-01-08T17:15:39.359Z,98794.22
2023-01-08T17:18:06.859Z,98788.53
2023-01-08T17:20:34.259Z,98826.38
2023-01-08T17:23:01.752Z,98828.16
2023-01-08T17:25:29.241Z,98702.25
2023-01-08T17:27:57.950Z,98834.41
2023-01-08T17:30:25.331Z,98822.13
2023-01-08T17:32:52.721Z,98824.06
2023-01-08T17:35:20.171Z,98816.13
2023-01-08T17:37:47.717Z,98821.31
2023-01-08T17:40:15.141Z,98819.50
2023-01-08T17:42:42.563Z,98823.00
2023-01-08T17:45:12.182Z,98821.41
2023-01-08T17:47:39.580Z,98820.56
2023-01-08T17:50:07.364Z,98816.25
2023-01-08T17:52:34.786Z,98808.22
2023-01-08T17:55:02.185Z,98810.88
2023-01-08T17:57:31.522Z,98813.59
2023-01-08T17:59:59.590Z,98809.34
2023-01-08T18:02:28.482Z,98802.41
2023-01-08T18:04:55.876Z,98802.41
2023-01-08T18:07:24.023Z,98805.88
2023-01-08T18:09:52.730Z,98801.53
2023-01-08T18:12:20.191Z,98799.75
2023-01-08T18:14:47.570Z,98783.59
2023-01-08T18:17:14.988Z,98788.25
2023-01-08T18:19:43.681Z,98789.22
2023-01-08T18:22:11.847Z,98788.25
2023-01-08T18:24:39.271Z,98779.44
2023-01-08T18:27:06.720Z,98789.13
2023-01-08T18:29:34.131Z,98782.16
2023-01-08T18:32:01.986Z,98787.34
2023-01-08T18:34:29.409Z,98781.31
2023-01-08T18:36:58.094Z,98780.34
2023-01-08T18:39:26.486Z,98766.53
2023-01-08T18:42:11.369Z,98772.63
2023-01-08T18:44:38.779Z,98781.50
2023-01-08T18:47:06.156Z,98777.09
2023-01-08T18:49:33.626Z,98782.47
2023-01-08T18:52:02.301Z,98777.28
2023-01-08T18:54:29.742Z,98778.50
2023-01-08T18:56:57.108Z,98779.06
2023-01-08T18:59:25.295Z,98779.06
2023-01-08T19:01:53.259Z,98769.47
2023-01-08T19:04:20.791Z,98763.44
2023-01-08T19:06:48.179Z,98767.56
2023-01-08T19:09:17.077Z,98756.28
2023-01-08T19:11:44.505Z,98751.31
2023-01-08T19:14:12.315Z,98736.31
2023-01-08T19:16:39.695Z,98765.13
2023-01-08T19:19:07.130Z,98753.84
2023-01-08T19:21:34.545Z,98750.28
2023-01-08T19:24:01.940Z,98747.72
2023-01-08T19:26:30.643Z,98747.72
2023-01-08T19:28:58.056Z,98746.88
2023-01-08T19:31:25.506Z,98738.03
2023-01-08T19:33:53.332Z,98743.31
2023-01-08T19:36:21.013Z,98737.28
2023-01-08T19:38:48.428Z,98726.84
2023-01-08T19:41:33.123Z,98732.97
2023-01-08T19:44:01.836Z,98723.25
2023-01-08T19:46:29.363Z,98704.56
2023-01-08T19:48:57.371Z,98730.44
2023-01-08T19:51:25.031Z,98712.81
2023-01-08T19:53:52.420Z,98716.41
2023-01-08T19:56:19.811Z,98711.13
2023-01-08T19:58:47.200Z,98710.16
2023-01-08T20:01:16.976Z,98677.88
2023-01-08T20:03:44.553Z,98704.91
2023-01-08T20:06:13.099Z,98707.63
2023-01-08T20:08:40.569Z,98701.75
2023-01-08T20:11:08.448Z,98696.88
2023-01-08T20:13:36.545Z,98709.56
2023-01-08T20:16:04.871Z,98699.84
2023-01-08T20:18:33.704Z,98697.94
2023-01-08T20:21:05.833Z,98692.88
2023-01-08T20:23:33.294Z,98690.25
2023-01-08T20:26:03.914Z,98689.28
2023-01-08T20:28:31.309Z,98683.19
2023-01-08T20:31:04.153Z,98688.47
2023-01-08T20:33:32.878Z,98686.75
2023-01-08T20:36:00.258Z,98669.34
2023-01-08T20:38:27.693Z,98664.84
2023-01-08T20:40:55.072Z,98663.13
2023-01-08T20:43:22.501Z,98668.41
2023-01-08T20:45:49.956Z,98654.06
2023-01-08T20:48:17.395Z,98658.06
2023-01-08T20:50:46.967Z,98663.34
2023-01-08T20:53:14.647Z,98670.31
2023-01-08T20:55:43.556Z,98672.09
2023-01-08T20:58:11.028Z,98672.19
2023-01-08T21:00:38.449Z,98664.19
2023-01-08T21:03:05.951Z,98622.69
2023-01-08T21:05:36.076Z,98662.41
2023-01-08T21:08:04.793Z,98524.44
2023-01-08T21:10:32.190Z,98651.31
2023-01-08T21:12:59.565Z,98645.19
2023-01-08T21:15:26.998Z,98607.19
2023-01-08T21:17:54.358Z,98639.19
2023-01-08T21:20:21.753Z,98634.53
2023-01-08T21:22:49.191Z,98639.81
2023-01-08T21:25:18.914Z,98627.91
2023-01-08T21:27:46.337Z,98621.56
2023-01-08T21:30:14.035Z,98624.31
2023-01-08T21:32:41.415Z,98612.00
2023-01-08T21:35:09.176Z,98615.47
2023-01-08T21:37:37.141Z,98610.84
2023-01-08T21:40:05.785Z,98596.94
2023-01-08T21:42:52.026Z,98591.75
2023-01-08T21:45:25.767Z,98593.66
2023-01-08T21:47:53.399Z,98588.38
2023-01-08T21:50:21.101Z,98562.94
2023-01-08T21:53:08.112Z,98578.69
2023-01-08T21:55:35.628Z,98579.50
2023-01-08T21:58:04.341Z,98577.09
2023-01-08T22:00:32.219Z,98569.06
2023-01-08T22:02:59.898Z,98568.25
2023-01-08T22:05:27.423Z,98563.81
2023-01-08T22:07:54.823Z,98553.47
2023-01-08T22:10:22.220Z,98556.09
2023-01-08T22:12:49.593Z,98545.88
2023-01-08T22:15:19.290Z,98542.00
2023-01-08T22:17:46.696Z,98541.16
2023-01-08T22:20:14.264Z,98505.63
2023-01-08T22:22:45.461Z,98542.72
2023-01-08T22:25:12.854Z,98528.84
2023-01-08T22:27:40.225Z,98529.66
2023-01-08T22:30:08.903Z,98518.28
2023-01-08T22:32:37.588Z,98505.22
2023-01-08T22:35:05.692Z,98489.94
2023-01-08T22:37:33.135Z,98462.00
2023-01-08T22:40:00.675Z,98495.63
2023-01-08T22:42:28.052Z,98493.94
2023-01-08T22:44:55.461Z,98489.53
2023-01-08T22:47:22.834Z,98499.97
2023-01-08T22:49:51.554Z,98496.56
2023-01-08T22:52:18.984Z,98485.28
2023-01-08T22:54:46.415Z,98483.41
2023-01-08T22:57:13.799Z,98480.75
2023-01-08T22:59:41.190Z,98481.63
2023-01-08T23:02:08.574Z,98480.75
2023-01-08T23:04:35.956Z,98478.03
2023-01-08T23:07:04.657Z,98463.28
2023-01-08T23:09:32.059Z,98461.47
2023-01-08T23:11:59.447Z,98456.41
2023-01-08T23:14:26.830Z,98457.16
2023-01-08T23:16:54.207Z,98450.22
2023-01-08T23:19:21.613Z,98452.84
2023-01-08T23:21:48.987Z,98451.13
2023-01-08T23:24:17.682Z,98440.00
2023-01-08T23:26:45.058Z,98440.38
2023-01-08T23:29:12.472Z,98437.03
2023-01-08T23:31:39.920Z,98436.81
2023-01-08T23:34:07.523Z,98435.00
2023-01-08T23:36:34.919Z,98417.41
2023-01-08T23:39:02.327Z,98425.75
2023-01-08T23:41:34.995Z,98430.72
2023-01-08T23:44:04.523Z,98409.50
2023-01-08T23:46:31.960Z,98439.66
2023-01-08T23:48:59.448Z,98437.16
2023-01-08T23:51:26.868Z,98427.44
2023-01-08T23:53:54.244Z,98428.28
2023-01-08T23:56:21.713Z,98426.91
2023-01-08T23:58:50.403Z,98425.75
